Time;durP1;ratioP1;P1;durP2;ratioP2;P2;SDS_P1;SDS_P2;PMS_P1;PMS_P2;Temp;Humidity;BMP_temperature;BMP_pressure;BME280_temperature;BME280_humidity;BME280_pressure;Samples;Min_cycle;Max_cycle;Signal;HPM_P1;HPM_P2
2024/01/02 00:00:24;;;;;;;0.63;0.63;;;;;;;6.23;77.38;100305.53;15678861;28;20119;-49
2024/01/02 00:07:58;;;;;;;0.00;0.00;;;;;;;6.64;75.58;100308.31;15681702;28;20445;-51
2024/01/02 00:15:33;;;;;;;0.10;0.10;;;;;;;6.42;75.67;100297.88;15682097;28;20059;-50
2024/01/02 00:23:06;;;;;;;0.00;0.00;;;;;;;6.33;75.54;100291.88;15680422;28;20068;-49
2024/01/02 00:30:41;;;;;;;0.00;0.00;;;;;;;6.32;75.05;100283.06;15674959;28;20120;-51
2024/01/02 00:38:14;;;;;;;0.00;0.00;;;;;;;6.46;74.24;100281.31;15676841;28;20049;-54
2024/01/02 00:45:49;;;;;;;0.03;0.03;;;;;;;6.11;74.77;100269.78;15658221;28;20033;-50
2024/01/02 00:53:23;;;;;;;0.40;0.40;;;;;;;5.90;75.65;100257.25;15662793;28;20075;-51
2024/01/02 01:00:58;;;;;;;0.00;0.00;;;;;;;5.95;75.37;100268.19;15678170;28;20280;-49
2024/01/02 01:08:31;;;;;;;0.20;0.20;;;;;;;6.01;74.57;100247.94;15659113;28;20095;-51
2024/01/02 01:16:06;;;;;;;0.00;0.00;;;;;;;5.82;74.28;100250.22;15657715;28;20047;-50
2024/01/02 01:23:39;;;;;;;4.13;1.50;;;;;;;5.52;74.92;100252.19;15676224;28;20048;-51
2024/01/02 01:31:14;;;;;;;0.00;0.00;;;;;;;5.66;73.97;100252.34;15659550;28;20119;-48
2024/01/02 01:38:48;;;;;;;0.30;0.30;;;;;;;5.12;76.33;100249.09;15675741;28;20045;-48
2024/01/02 01:46:23;;;;;;;0.10;0.10;;;;;;;5.05;76.79;100250.03;15650208;28;20059;-48
2024/01/02 01:53:59;;;;;;;1.27;0.90;;;;;;;5.00;77.23;100249.78;15672429;28;20080;-52
2024/01/02 02:01:35;;;;;;;0.00;0.00;;;;;;;4.86;77.06;100236.31;15673624;28;20453;-47
2024/01/02 02:09:09;;;;;;;0.00;0.00;;;;;;;4.69;76.92;100242.81;15655904;28;20033;-50
2024/01/02 02:16:44;;;;;;;0.00;0.00;;;;;;;4.64;77.46;100252.38;15674603;28;20049;-48
2024/01/02 02:24:20;;;;;;;0.10;0.10;;;;;;;4.55;77.10;100243.66;15662552;28;20444;-49
2024/01/02 02:31:53;;;;;;;0.40;0.40;;;;;;;4.70;76.77;100222.38;15654936;28;20057;-48
2024/01/02 02:39:28;;;;;;;0.00;0.00;;;;;;;4.52;76.54;100215.63;15653424;28;20045;-50
2024/01/02 02:47:03;;;;;;;0.00;0.00;;;;;;;4.33;77.20;100210.81;15631145;28;20461;-52
2024/01/02 02:54:38;;;;;;;0.00;0.00;;;;;;;4.54;76.32;100199.47;15637893;28;20139;-51
2024/01/02 03:02:12;;;;;;;0.00;0.00;;;;;;;4.68;76.12;100192.50;15668328;28;20040;-50
2024/01/02 03:09:48;;;;;;;30.45;3.53;;;;;;;4.22;77.51;100172.28;15651801;28;20064;-52
2024/01/02 03:17:23;;;;;;;0.00;0.00;;;;;;;4.32;76.57;100170.16;15672580;28;20049;-51
2024/01/02 03:24:57;;;;;;;;;;;;;;;4.32;76.22;100158.72;15672619;28;20220;-53
2024/01/02 03:32:32;;;;;;;0.00;0.00;;;;;;;4.23;76.44;100147.34;15671719;28;19920;-51
2024/01/02 03:40:08;;;;;;;0.00;0.00;;;;;;;4.08;76.81;100126.09;15653089;28;20083;-49
2024/01/02 03:47:42;;;;;;;0.00;0.00;;;;;;;3.93;77.34;100129.78;15644070;28;20037;-47
2024/01/02 03:55:16;;;;;;;;;;;;;;;4.08;77.13;100109.34;15672135;28;20053;-49
2024/01/02 04:02:54;;;;;;;0.00;0.00;;;;;;;4.02;77.16;100081.69;15676449;28;20385;-52
2024/01/02 04:10:29;;;;;;;0.00;0.00;;;;;;;4.07;76.65;100066.03;15661703;28;20045;-49
2024/01/02 04:18:04;;;;;;;0.00;0.00;;;;;;;3.98;76.70;100056.53;15681940;28;20063;-53
2024/01/02 04:25:38;;;;;;;0.10;0.10;;;;;;;3.60;78.46;100053.13;15680957;28;20080;-53
2024/01/02 04:33:14;;;;;;;0.05;0.05;;;;;;;3.33;79.25;100046.59;15660009;28;20045;-50
2024/01/02 04:40:49;;;;;;;0.00;0.00;;;;;;;3.14;80.50;100039.16;15678900;28;20049;-52
2024/01/02 04:48:30;;;;;;;0.13;0.13;;;;;;;2.93;81.28;100029.22;15667713;28;20047;-48
2024/01/02 04:56:05;;;;;;;0.00;0.00;;;;;;;3.04;80.78;100010.25;15662058;28;20087;-49
2024/01/02 05:03:39;;;;;;;0.00;0.00;;;;;;;3.13;80.81;99987.13;15658276;28;20037;-50
2024/01/02 05:11:14;;;;;;;;;;;;;;;3.30;80.35;99970.84;15676610;28;20120;-48
2024/01/02 05:18:48;;;;;;;0.55;0.55;;;;;;;3.03;81.35;99967.00;15660601;28;19920;-49
2024/01/02 05:26:22;;;;;;;0.00;0.00;;;;;;;3.45;80.21;99949.66;15660848;28;20500;-53
2024/01/02 05:33:56;;;;;;;0.00;0.00;;;;;;;3.66;79.63;99945.44;15678386;28;20064;-51
2024/01/02 05:41:31;;;;;;;;;;;;;;;3.14;80.65;99933.91;15676833;28;20051;-52
2024/01/02 05:49:04;;;;;;;0.15;0.15;;;;;;;3.56;80.14;99925.31;15677378;28;20382;-50
2024/01/02 05:56:44;;;;;;;2.50;1.90;;;;;;;3.48;79.77;99906.00;15654754;28;20056;-49
2024/01/02 06:04:18;;;;;;;0.00;0.00;;;;;;;3.53;80.07;99893.00;15669272;28;20052;-50
2024/01/02 06:11:54;;;;;;;0.00;0.00;;;;;;;3.78;79.55;99889.03;15674566;28;20083;-52
2024/01/02 06:19:28;;;;;;;0.00;0.00;;;;;;;3.98;78.54;99872.50;15670151;28;20056;-48
2024/01/02 06:27:03;;;;;;;0.43;0.32;;;;;;;4.10;78.43;99857.69;15670665;28;20040;-52
2024/01/02 06:34:37;;;;;;;0.00;0.00;;;;;;;3.97;78.82;99852.28;15657326;28;20075;-49
2024/01/02 06:42:12;;;;;;;0.00;0.00;;;;;;;3.84;79.46;99845.00;15684385;22;20439;-52
2024/01/02 06:49:45;;;;;;;0.00;0.00;;;;;;;3.70;80.29;99844.03;15662288;28;20132;-53
2024/01/02 06:57:20;;;;;;;0.00;0.00;;;;;;;3.89;79.75;99839.13;15667426;28;20509;-49
2024/01/02 07:04:54;;;;;;;0.20;0.15;;;;;;;3.93;79.67;99835.91;15667384;28;20087;-48
2024/01/02 07:12:29;;;;;;;0.00;0.00;;;;;;;4.33;78.49;99820.31;15667344;28;20041;-56
2024/01/02 07:20:03;;;;;;;0.00;0.00;;;;;;;4.25;79.38;99802.69;15648928;28;20048;-51
2024/01/02 07:27:40;;;;;;;0.00;0.00;;;;;;;4.28;79.39;99783.69;15649612;28;20128;-52
2024/01/02 07:35:14;;;;;;;0.15;0.15;;;;;;;4.48;78.94;99780.38;15664404;28;20055;-52
2024/01/02 07:42:49;;;;;;;0.00;0.00;;;;;;;4.45;79.55;99754.19;15678681;28;20064;-56
2024/01/02 07:50:23;;;;;;;0.00;0.00;;;;;;;4.36;79.25;99753.50;15676147;28;20424;-54
2024/01/02 07:57:58;;;;;;;0.00;0.00;;;;;;;4.46;79.49;99727.41;15636235;28;20521;-52
2024/01/02 08:05:34;;;;;;;0.20;0.20;;;;;;;4.51;80.14;99722.31;15674791;28;20410;-51
2024/01/02 08:13:09;;;;;;;0.00;0.00;;;;;;;4.41;80.51;99713.06;15676928;28;20490;-49
2024/01/02 08:20:42;;;;;;;0.00;0.00;;;;;;;4.19;81.23;99701.69;15660033;28;20451;-51
2024/01/02 08:28:18;;;;;;;3.63;1.38;;;;;;;4.14;82.76;99693.50;15658496;28;20041;-53
2024/01/02 08:35:51;;;;;;;0.00;0.00;;;;;;;4.19;82.87;99683.09;15674580;28;20092;-51
2024/01/02 08:43:26;;;;;;;0.00;0.00;;;;;;;4.41;82.96;99678.53;15675916;28;20040;-54
2024/01/02 08:51:00;;;;;;;0.00;0.00;;;;;;;4.37;83.83;99659.50;15669561;28;20041;-52
2024/01/02 08:58:35;;;;;;;0.00;0.00;;;;;;;4.31;84.95;99657.66;15674251;28;20068;-48
2024/01/02 09:06:13;;;;;;;0.00;0.00;;;;;;;4.43;84.43;99647.25;15655798;28;20489;-52
2024/01/02 09:13:48;;;;;;;0.00;0.00;;;;;;;4.38;85.14;99645.19;15654654;28;20458;-51
2024/01/02 09:21:22;;;;;;;0.00;0.00;;;;;;;4.32;85.91;99620.25;15672846;28;20049;-50
2024/01/02 09:28:56;;;;;;;0.00;0.00;;;;;;;4.51;85.70;99612.56;15673099;28;20132;-53
2024/01/02 09:36:30;;;;;;;0.00;0.00;;;;;;;4.21;86.96;99609.38;15672224;28;20091;-50
2024/01/02 09:44:12;;;;;;;;;;;;;;;4.67;86.33;99583.00;15672063;28;20049;-49
2024/01/02 09:52:02;;;;;;;8.30;2.58;;;;;;;4.45;86.96;99566.34;15668590;28;19965;-53
2024/01/02 09:59:53;;;;;;;0.35;0.35;;;;;;;4.53;87.14;99547.59;15671108;28;20111;-52
2024/01/02 10:07:49;;;;;;;0.00;0.00;;;;;;;4.41;87.78;99517.28;15671277;28;20136;-50
2024/01/02 10:15:32;;;;;;;0.00;0.00;;;;;;;4.43;87.87;99525.06;15670766;28;20528;-47
2024/01/02 10:23:29;;;;;;;0.00;0.00;;;;;;;4.65;87.11;99512.44;15663148;28;20099;-50
2024/01/02 10:31:08;;;;;;;0.08;0.08;;;;;;;4.76;87.18;99490.59;15670044;28;20210;-53
2024/01/02 10:38:49;;;;;;;0.00;0.00;;;;;;;4.68;87.20;99454.38;15669202;28;20040;-51
2024/01/02 10:46:38;;;;;;;0.00;0.00;;;;;;;4.61;88.10;99441.06;15663873;28;20117;-53
2024/01/02 10:54:20;;;;;;;0.10;0.10;;;;;;;4.90;87.47;99428.44;15669997;28;20052;-53
2024/01/02 11:02:03;;;;;;;0.00;0.00;;;;;;;4.72;87.72;99417.59;15659104;28;20438;-56
2024/01/02 11:09:44;;;;;;;0.20;0.20;;;;;;;5.03;86.78;99385.03;15669294;28;20322;-51
2024/01/02 11:17:19;;;;;;;0.00;0.00;;;;;;;4.90;87.82;99364.63;15679931;28;20499;-51
2024/01/02 11:25:01;;;;;;;0.00;0.00;;;;;;;4.83;87.59;99342.53;15661855;28;20426;-51
2024/01/02 11:32:47;;;;;;;0.60;0.43;;;;;;;4.86;87.96;99340.28;15679745;28;20052;-53
2024/01/02 11:40:29;;;;;;;0.15;0.15;;;;;;;5.06;87.09;99332.25;15679028;28;20087;-51
2024/01/02 11:48:24;;;;;;;0.00;0.00;;;;;;;4.91;86.60;99310.41;15673000;28;20115;-48
2024/01/02 11:56:05;;;;;;;0.00;0.00;;;;;;;4.91;87.24;99298.97;15637688;28;20041;-51
2024/01/02 12:03:52;;;;;;;0.00;0.00;;;;;;;4.96;87.32;99275.22;15677868;28;20107;-49
2024/01/02 12:11:30;;;;;;;0.00;0.00;;;;;;;5.05;87.38;99261.47;15679490;28;20536;-51
2024/01/02 12:19:06;;;;;;;0.08;0.08;;;;;;;5.00;87.28;99253.31;15675779;28;20041;-53
2024/01/02 12:26:40;;;;;;;0.00;0.00;;;;;;;4.96;87.37;99232.69;15674681;28;20150;-46
2024/01/02 12:34:23;;;;;;;0.00;0.00;;;;;;;5.16;86.74;99220.09;15667513;28;20490;-53
2024/01/02 12:41:59;;;;;;;0.00;0.00;;;;;;;5.12;86.68;99197.63;15687868;22;20118;-50
2024/01/02 12:49:41;;;;;;;0.00;0.00;;;;;;;5.28;86.18;99191.81;15674591;28;20045;-49
2024/01/02 12:57:16;;;;;;;0.00;0.00;;;;;;;5.12;86.98;99177.16;15679365;28;20041;-51
2024/01/02 13:04:52;;;;;;;0.00;0.00;;;;;;;5.43;86.87;99169.41;15664487;28;20053;-50
2024/01/02 13:12:25;;;;;;;0.00;0.00;;;;;;;5.41;86.00;99169.63;15671253;28;20049;-51
2024/01/02 13:20:01;;;;;;;0.00;0.00;;;;;;;5.40;86.39;99157.34;15661240;28;20140;-48
2024/01/02 13:27:35;;;;;;;0.00;0.00;;;;;;;5.32;86.91;99155.78;15678857;28;20045;-53
2024/01/02 13:35:19;;;;;;;0.08;0.08;;;;;;;5.32;87.66;99149.63;15657776;28;20452;-47
2024/01/02 13:42:57;;;;;;;0.00;0.00;;;;;;;5.15;88.09;99136.03;15665831;28;20037;-49
2024/01/02 13:50:34;;;;;;;0.20;0.20;;;;;;;5.11;88.90;99143.63;15648563;28;20571;-45
2024/01/02 13:58:11;;;;;;;0.00;0.00;;;;;;;5.43;87.67;99137.47;15667069;28;20127;-46
2024/01/02 14:05:56;;;;;;;0.00;0.00;;;;;;;5.31;88.58;99126.72;15652213;28;20045;-48
2024/01/02 14:13:32;;;;;;;0.00;0.00;;;;;;;5.57;87.24;99120.38;15648068;28;20410;-51
2024/01/02 14:21:13;;;;;;;0.00;0.00;;;;;;;5.37;87.56;99126.66;15667274;28;20083;-50
2024/01/02 14:28:53;;;;;;;1.25;1.10;;;;;;;5.84;86.49;99118.31;15672323;28;20056;-49
2024/01/02 14:36:46;;;;;;;0.00;0.00;;;;;;;5.50;87.92;99104.47;15622497;28;20535;-49
2024/01/02 14:44:34;;;;;;;0.00;0.00;;;;;;;5.83;86.53;99108.69;15665696;28;20136;-50
2024/01/02 14:52:44;;;;;;;0.00;0.00;;;;;;;5.77;86.73;99097.06;15676377;28;20086;-51
2024/01/02 15:00:25;;;;;;;0.00;0.00;;;;;;;5.75;87.47;99088.47;15627606;28;20045;-51
2024/01/02 15:08:04;;;;;;;0.00;0.00;;;;;;;5.81;87.08;99087.59;15650355;28;20490;-48
2024/01/02 15:15:54;;;;;;;0.00;0.00;;;;;;;5.62;87.56;99084.09;15659969;28;20033;-45
2024/01/02 15:23:47;;;;;;;0.00;0.00;;;;;;;5.55;88.99;99078.03;15666468;28;20397;-48
2024/01/02 15:31:28;;;;;;;13.85;0.63;;;;;;;5.27;90.32;99062.50;15668932;28;20405;-45
2024/01/02 15:39:11;;;;;;;0.00;0.00;;;;;;;5.55;89.33;99047.94;15668758;28;20041;-49
2024/01/02 15:46:56;;;;;;;0.98;0.75;;;;;;;5.22;90.04;99027.75;15660356;28;20045;-45
2024/01/02 15:54:31;;;;;;;0.00;0.00;;;;;;;5.61;89.23;99010.59;15644777;28;20084;-45
2024/01/02 16:02:36;;;;;;;0.75;0.30;;;;;;;5.73;88.65;99009.84;15662867;28;20033;-49
2024/01/02 16:10:43;;;;;;;0.00;0.00;;;;;;;5.52;88.85;98997.81;15662257;28;20048;-46
2024/01/02 16:18:50;;;;;;;0.00;0.00;;;;;;;5.40;89.65;98986.25;15644072;28;20049;-47
2024/01/02 16:26:51;;;;;;;0.00;0.00;;;;;;;6.09;87.46;98985.91;15670888;28;20139;-49
2024/01/02 16:34:58;;;;;;;0.00;0.00;;;;;;;6.06;87.18;98981.06;15666140;28;20115;-50
2024/01/02 16:42:38;;;;;;;0.10;0.08;;;;;;;5.56;88.67;98964.41;15645148;28;20509;-49
2024/01/02 16:50:14;;;;;;;0.20;0.20;;;;;;;6.26;88.79;98958.66;15672890;28;20379;-48
2024/01/02 16:57:48;;;;;;;0.47;0.40;;;;;;;6.27;86.20;98942.44;15671975;28;20129;-51
2024/01/02 17:05:23;;;;;;;0.00;0.00;;;;;;;6.56;86.30;98945.31;15666450;28;20114;-49
2024/01/02 17:12:57;;;;;;;0.22;0.22;;;;;;;5.97;87.03;98923.81;15678939;28;20043;-50
2024/01/02 17:20:33;;;;;;;0.10;0.10;;;;;;;5.77;88.82;98917.88;15659622;28;20041;-49
2024/01/02 17:28:07;;;;;;;0.35;0.17;;;;;;;6.11;88.87;98897.81;15677442;28;20116;-49
2024/01/02 17:35:42;;;;;;;0.20;0.20;;;;;;;6.03;87.98;98888.28;15663656;28;20114;-45
2024/01/02 17:43:17;;;;;;;0.20;0.17;;;;;;;6.27;87.64;98862.53;15676075;28;20041;-45
2024/01/02 17:50:55;;;;;;;0.00;0.00;;;;;;;6.51;87.48;98862.56;15660645;28;20059;-49
2024/01/02 17:58:34;;;;;;;0.03;0.03;;;;;;;6.24;89.02;98846.16;15673745;28;20429;-49
2024/01/02 18:06:18;;;;;;;0.00;0.00;;;;;;;6.95;86.35;98836.38;15661484;28;20037;-50
2024/01/02 18:13:57;;;;;;;0.00;0.00;;;;;;;6.50;87.98;98831.63;15678883;28;20048;-53
2024/01/02 18:21:42;;;;;;;0.55;0.55;;;;;;;6.52;88.29;98808.22;15643757;28;20327;-55
2024/01/02 18:29:31;;;;;;;0.00;0.00;;;;;;;6.79;88.07;98800.56;15643201;28;20060;-51
2024/01/02 18:37:11;;;;;;;0.52;0.52;;;;;;;6.85;88.37;98783.63;15679756;28;20103;-51
2024/01/02 18:44:53;;;;;;;0.00;0.00;;;;;;;6.73;89.00;98780.16;15640912;22;20048;-49
2024/01/02 18:52:40;;;;;;;0.03;0.03;;;;;;;7.04;88.30;98769.13;15657749;28;20098;-54
2024/01/02 19:00:15;;;;;;;0.00;0.00;;;;;;;6.79;88.91;98773.91;15660742;28;20036;-50
2024/01/02 19:08:05;;;;;;;0.10;0.10;;;;;;;7.00;88.20;98757.28;15642262;28;20049;-50
2024/01/02 19:15:42;;;;;;;0.00;0.00;;;;;;;6.83;89.51;98735.88;15668956;28;20045;-50
2024/01/02 19:23:18;;;;;;;0.00;0.00;;;;;;;6.87;89.71;98714.88;15653024;28;20138;-52
2024/01/02 19:30:52;;;;;;;0.52;0.32;;;;;;;6.95;89.60;98682.50;15658627;28;20049;-48
2024/01/02 19:38:27;;;;;;;0.15;0.10;;;;;;;7.16;89.75;98671.16;15662289;28;20055;-51
2024/01/02 19:46:00;;;;;;;0.22;0.22;;;;;;;7.35;88.76;98660.28;15639277;28;20067;-47
2024/01/02 19:53:35;;;;;;;0.00;0.00;;;;;;;7.21;89.91;98662.44;15650918;28;20167;-46
2024/01/02 20:01:10;;;;;;;0.00;0.00;;;;;;;7.11;91.22;98652.41;15667340;28;20060;-47
2024/01/02 20:08:48;;;;;;;0.00;0.00;;;;;;;7.17;91.01;98645.28;15672217;28;20128;-44
2024/01/02 20:16:52;;;;;;;0.00;0.00;;;;;;;7.27;91.44;98623.31;15670723;28;20107;-49
2024/01/02 20:24:27;;;;;;;3.40;1.55;;;;;;;7.40;91.45;98629.16;15651368;28;20064;-45
2024/01/02 20:32:00;;;;;;;0.00;0.00;;;;;;;7.30;91.50;98602.28;15675797;28;20323;-46
2024/01/02 20:39:35;;;;;;;0.00;0.00;;;;;;;7.50;91.24;98593.81;15658779;28;20065;-47
2024/01/02 20:47:35;;;;;;;0.00;0.00;;;;;;;7.61;91.44;98578.78;15646406;28;20504;-49
2024/01/02 20:55:17;;;;;;;0.00;0.00;;;;;;;7.69;91.28;98565.00;15641453;28;20354;-50
2024/01/02 21:02:50;;;;;;;0.00;0.00;;;;;;;7.63;91.22;98544.63;15630594;28;20044;-50
2024/01/02 21:10:51;;;;;;;0.00;0.00;;;;;;;7.59;91.79;98524.81;15646053;28;20114;-47
2024/01/02 21:18:38;;;;;;;0.00;0.00;;;;;;;7.72;91.41;98518.31;15658772;28;20469;-46
2024/01/02 21:26:13;;;;;;;0.20;0.20;;;;;;;7.60;91.96;98505.06;15671669;28;20135;-48
2024/01/02 21:33:47;;;;;;;0.00;0.00;;;;;;;7.73;91.61;98488.69;15665542;28;20420;-47
2024/01/02 21:41:26;;;;;;;0.00;0.00;;;;;;;7.75;91.61;98488.47;15634196;28;20057;-45
2024/01/02 21:49:01;;;;;;;0.00;0.00;;;;;;;8.11;90.90;98468.31;15648972;28;20045;-46
2024/01/02 21:56:38;;;;;;;0.00;0.00;;;;;;;7.83;90.62;98453.28;15670283;28;20102;-44
2024/01/02 22:04:14;;;;;;;0.00;0.00;;;;;;;7.83;91.34;98446.13;15669577;28;20522;-45
2024/01/02 22:11:51;;;;;;;0.00;0.00;;;;;;;7.73;92.00;98445.97;15669776;28;20397;-45
2024/01/02 22:19:47;;;;;;;0.00;0.00;;;;;;;7.93;90.52;98434.75;15646170;28;20041;-45
2024/01/02 22:27:34;;;;;;;0.00;0.00;;;;;;;7.98;90.74;98429.44;15639106;28;20424;-46
2024/01/02 22:35:39;;;;;;;0.55;0.43;;;;;;;8.14;90.39;98412.50;15648148;28;20045;-46
2024/01/02 22:43:14;;;;;;;0.10;0.10;;;;;;;7.91;90.95;98410.94;15650668;28;20446;-43
2024/01/02 22:50:47;;;;;;;0.52;0.52;;;;;;;8.22;90.02;98410.47;15655398;28;20041;-43
2024/01/02 22:58:22;;;;;;;0.00;0.00;;;;;;;8.19;90.15;98398.41;15647858;28;20041;-43
2024/01/02 23:06:00;;;;;;;0.00;0.00;;;;;;;8.40;88.67;98410.94;15670306;28;20061;-44
2024/01/02 23:13:40;;;;;;;0.60;0.60;;;;;;;8.35;89.15;98394.03;15687373;28;20095;-48
2024/01/02 23:21:33;;;;;;;0.03;0.03;;;;;;;8.19;89.70;98399.19;15662352;28;20455;-44
2024/01/02 23:29:27;;;;;;;;;;;;;;;8.29;89.59;98387.00;15648658;28;20053;-45
2024/01/02 23:37:04;;;;;;;0.00;0.00;;;;;;;8.23;90.18;98386.16;15667964;28;20397;-46
2024/01/02 23:44:39;;;;;;;0.10;0.10;;;;;;;8.32;90.42;98381.97;15669728;28;20052;-45
2024/01/02 23:52:22;;;;;;;0.00;0.00;;;;;;;8.56;89.60;98385.13;15668799;28;20037;-46
2024/01/02 23:59:57;;;;;;;0.00;0.00;;;;;;;8.61;89.21;98363.00;15669062;28;20072;-44
